2022年5月23日

时间 代码 天气 温度 能见度 乌云 METAR/SPECI
10:30
V
18 °C 10 km+ 10.000 ft 230°   230° 12 kt METAR LFLC 230830Z AUTO 23012KT 150V260 9999 -RA FEW033/// SCT046/// OVC100/// //////CB 18/14 Q1007 TEMPO VRB25G50KT 2000 TSGR
10:00
V
18 °C 10 km+ 10.000 ft 180°   180° 17 kt METAR LFLC 230800Z AUTO 18017KT 9999 -RA FEW048/// OVC100/// //////CB 18/14 Q1006 TEMPO VRB25G50KT 2000 TSGR
09:30
V
18 °C 10 km+ 9.800 ft 160°   160° 13 kt METAR LFLC 230730Z AUTO 16013KT 9999 -RA FEW037/// OVC098/// //////CB 18/14 Q1005 TEMPO VRB25G50KT 2000 TSGR
09:00
V
21 °C 10 km+ - 180°   180° 18 kt METAR LFLC 230700Z AUTO 18018KT 9999 //////CB 21/13 Q1006 TEMPO VRB25G50KT 2000 TSGR
08:30
V
22 °C 10 km+ - 170°   170° 13 kt METAR LFLC 230630Z AUTO 17013KT 9999 VCTS ///CB 22/12 Q1005 TEMPO VRB25G50KT 2000 TSGR
08:00
V
22 °C 10 km+ - 190°   190° 10 kt METAR LFLC 230600Z AUTO 19010KT 150V230 9999 ///CB 22/11 Q1005 TEMPO VRB25G50KT 2000 TSGR
07:30
V
21 °C 10 km+ - 190°   190° 9 kt METAR LFLC 230530Z AUTO 19009KT 150V220 9999 //////CB 21/13 Q1006 TEMPO VRB25G50KT 2000 TSGR
07:00
V
21 °C 10 km+ - 210°   210° 13 kt METAR LFLC 230500Z AUTO 21013KT 180V240 9999 ///CB 21/13 Q1007 TEMPO VRB25G50KT 2000 TSGR
06:30
V
21 °C 10 km+ 10.000 ft 180°   180° 7 kt METAR LFLC 230430Z AUTO 18007KT 140V250 9999 FEW042/// OVC100/// //////CB 21/15 Q1007 TEMPO VRB25G50KT 2000 TSGR
06:00
V
21 °C 10 km+ 10.000 ft 140°   140° 6 kt METAR LFLC 230400Z AUTO 14006KT 110V170 9999 TS FEW054/// BKN100/// OVC120/// //////CB 21/15 Q1007 TEMPO VRB25G50KT 2000 TSGR
05:30
V
19 °C 10 km+ 11.000 ft Var   Var 2 kt METAR LFLC 230330Z AUTO VRB02KT 9999 FEW052/// OVC110/// ///CB 19/17 Q1007 TEMPO VRB25G50KT 2000 TSGR
05:00
V
20 °C 10 km+ - Var   Var 2 kt METAR LFLC 230300Z AUTO VRB02KT 9999 //////CB 20/17 Q1006 TEMPO VRB25G50KT 2000 TSGR
04:30
V
19 °C 10 km+ - 250°   250° 5 kt METAR LFLC 230230Z AUTO 25005KT 9999 ///CB 19/16 Q1006 TEMPO VRB25G50KT 2000 TSGR
04:00
V
20 °C 10 km+ - 040°   040° 3 kt METAR LFLC 230200Z AUTO 04003KT CAVOK 20/16 Q1006 TEMPO VRB25G50KT 2000 TSGR BKN080CB
03:30
V
20 °C 10 km+ - Var   Var 3 kt METAR LFLC 230130Z AUTO VRB03KT 9999 ///TCU 20/17 Q1007 TEMPO VRB25G50KT 2000 TSGR BKN080CB
03:00
V
21 °C 10 km+ - 050°   050° 9 kt METAR LFLC 230100Z AUTO 05009KT 010V110 9999 ///TCU 21/17 Q1007 TEMPO VRB25G50KT 2000 TSGR BKN080CB
02:30
V
24 °C 10 km+ - 130°   130° 7 kt METAR LFLC 230030Z AUTO 13007KT CAVOK 24/15 Q1007 TEMPO VRB25G50KT 2000 TSGR BKN080CB
02:00
V
24 °C 10 km+ - 150°   150° 5 kt METAR LFLC 230000Z AUTO 15005KT 120V180 9999 NSC 24/15 Q1007 TEMPO VRB25G50KT 2000 TSGR BKN080CB
01:30
V
24 °C 10 km+ - 160°   160° 6 kt METAR LFLC 222330Z AUTO 16006KT CAVOK 24/16 Q1007 TEMPO VRB25G50KT 2000 TSGR BKN080CB
01:00
V
24 °C 10 km+ - 170°   170° 7 kt METAR LFLC 222300Z AUTO 17007KT CAVOK 24/15 Q1007 TEMPO VRB25G50KT 1500 TSRAGR BKN085CB
00:30
V
22 °C 10 km+ - 170°   170° 8 kt METAR LFLC 222230Z AUTO 17008KT CAVOK 22/15 Q1006 TEMPO VRB25G50KT 1500 TSRAGR BKN085CB
00:00
V
22 °C 10 km+ - 180°   180° 8 kt METAR LFLC 222200Z AUTO 18008KT 140V200 CAVOK 22/16 Q1006 TEMPO VRB25G50KT 1500 TSRAGR BKN085CB

2022年5月22日

时间 代码 天气 温度 能见度 乌云 METAR/SPECI
23:30
V
23 °C 10 km+ - Var   Var 3 kt METAR LFLC 222130Z AUTO VRB03KT CAVOK 23/17 Q1006 TEMPO VRB25G50KT 1500 TSRAGR BKN085CB
23:00
V
23 °C 10 km+ - Var   Var 2 kt METAR LFLC 222100Z AUTO VRB02KT CAVOK 23/17 Q1007 TEMPO VRB25G50KT 1500 TSRAGR BKN085CB
22:30
V
22 °C 10 km+ - Var   Var 3 kt METAR LFLC 222030Z AUTO VRB03KT CAVOK 22/17 Q1007 TEMPO VRB25G50KT 1500 TSRAGR BKN085CB
22:00
V
24 °C 10 km+ - 100°   100° 6 kt METAR LFLC 222000Z AUTO 10006KT CAVOK 24/19 Q1007 TEMPO VRB25G50KT 1500 TSRAGR BKN085CB
21:30
V
25 °C 10 km+ - 110°   110° 6 kt METAR LFLC 221930Z AUTO 11006KT 9999 FEW005/// ///CB 25/19 Q1007 TEMPO VRB25G50KT 1500 TSRAGR
21:00
V
27 °C 10 km+ 10.000 ft 250°   250° 7 kt METAR LFLC 221900Z AUTO 25007KT 220V340 9999 TSRA FEW034/// SCT086/// BKN100/// //////CB 27/21 Q1007 TEMPO VRB25G50KT 1500 TSRAGR
20:30
V
28 °C 10 km+ - Var   Var 3 kt METAR LFLC 221830Z AUTO VRB03KT CAVOK 28/19 Q1007 TEMPO VRB25G50KT 1500 TSRAGR BKN085CB
20:00
V
29 °C 10 km+ - 120°   120° 6 kt METAR LFLC 221800Z AUTO 12006KT 080V150 CAVOK 29/18 Q1007 TEMPO TS BKN080CB
19:30
V
30 °C 10 km+ - 110°   110° 8 kt METAR LFLC 221730Z AUTO 11008KT CAVOK 30/19 Q1007 TEMPO TS BKN080CB
19:00
V
30 °C 10 km+ - 100°   100° 6 kt METAR LFLC 221700Z AUTO 10006KT 070V130 9999 FEW026/// SCT160/// ///TCU 30/19 Q1007 TEMPO VRB15G25KT TS SCT100CB
18:30
V
31 °C 10 km+ - 060°   060° 3 kt METAR LFLC 221630Z AUTO 06003KT 360V120 9999 TS FEW005/// SCT034/// ///CB 31/20 Q1007 BECMG NSW NSC
18:00
V
31 °C 10 km+ - Var   Var 2 kt METAR LFLC 221600Z AUTO VRB02KT 9999 VCTS ///CB 31/18 Q1007 TEMPO VRB15G25KT BECMG NSW NSC
17:30
V
32 °C 10 km+ - 100°   100° 3 kt METAR LFLC 221530Z AUTO 10003KT 030V140 9999 ///CB 32/18 Q1008 TEMPO VRB15G25KT TS BECMG NSC
17:00
V
30 °C 10 km+ - 010°   010° 4 kt METAR LFLC 221500Z AUTO 01004KT 320V050 CAVOK 30/18 Q1008 TEMPO VRB15G25KT TS SCT100CB
16:30
V
31 °C 10 km+ - 040°   040° 4 kt METAR LFLC 221430Z AUTO 04004KT 320V090 CAVOK 31/18 Q1009 TEMPO VRB15G25KT TS SCT100CB
16:00
V
28 °C 10 km+ - 050°   050° 5 kt METAR LFLC 221400Z AUTO 05005KT 350V080 9999 FEW056/// SCT170/// //////TCU 28/17 Q1009 TEMPO VRB15G25KT TS SCT100CB
15:30
V
30 °C 10 km+ - Var   Var 3 kt METAR LFLC 221330Z AUTO VRB03KT CAVOK 30/17 Q1010 TEMPO VRB15G25KT TS SCT100CB
15:00
V
29 °C 10 km+ - 040°   040° 4 kt METAR LFLC 221300Z AUTO 04004KT 340V110 CAVOK 29/18 Q1010 TEMPO VRB15G25KT TS SCT100CB
14:30
V
29 °C 10 km+ - 040°   040° 6 kt METAR LFLC 221230Z AUTO 04006KT 350V120 CAVOK 29/19 Q1011 TEMPO VRB15G25KT TS SCT100CB
14:00
V
28 °C 10 km+ - 050°   050° 8 kt METAR LFLC 221200Z AUTO 05008KT 020V080 CAVOK 28/19 Q1011 TEMPO VRB15G25KT TS SCT100CB
13:30
V
28 °C 10 km+ - 020°   020° 7 kt METAR LFLC 221130Z AUTO 02007KT 350V050 9999 //////TCU 28/19 Q1012 TEMPO TSRA SCT090CB
13:00
V
28 °C 10 km+ - 360°   360° 9 kt METAR LFLC 221100Z AUTO 36009KT 320V030 CAVOK 28/19 Q1012 NOSIG
12:30
V
27 °C 10 km+ - 360°   360° 4 kt METAR LFLC 221030Z AUTO 36004KT 310V060 CAVOK 27/19 Q1012 NOSIG
12:00
V
26 °C 10 km+ - 360°   360° 4 kt METAR LFLC 221000Z AUTO 36004KT 320V020 CAVOK 26/17 Q1012 NOSIG
11:30
V
26 °C 10 km+ - 020°   020° 4 kt METAR LFLC 220930Z AUTO 02004KT 330V080 CAVOK 26/17 Q1012 NOSIG
11:00
V
25 °C 10 km+ - 090°   090° 5 kt METAR LFLC 220900Z AUTO 09005KT 050V140 CAVOK 25/17 Q1013 NOSIG
10:30
V
24 °C 10 km+ - 120°   120° 3 kt METAR LFLC 220830Z AUTO 12003KT 060V220 CAVOK 24/17 Q1013 NOSIG
10:00
V
23 °C 10 km+ - 190°   190° 3 kt METAR LFLC 220800Z AUTO 19003KT 130V250 CAVOK 23/17 Q1014 NOSIG
09:30
V
22 °C 10 km+ - Var   Var 3 kt METAR LFLC 220730Z AUTO VRB03KT CAVOK 22/17 Q1013 NOSIG
09:00
V
21 °C 10 km+ - Var   Var 3 kt METAR LFLC 220700Z AUTO VRB03KT CAVOK 21/17 Q1014 NOSIG
08:30
V
20 °C 10 km+ - Var   Var 2 kt METAR LFLC 220630Z AUTO VRB02KT CAVOK 20/17 Q1014 NOSIG
08:00
V
19 °C 10 km+ - Var   000° 0 kt METAR LFLC 220600Z AUTO 00000KT CAVOK 19/17 Q1014 NOSIG
07:30
V
18 °C 10 km+ - Var   Var 1 kt METAR LFLC 220530Z AUTO VRB01KT CAVOK 18/17 Q1014 NOSIG
07:00
V
17 °C 10 km+ - Var   Var 2 kt METAR LFLC 220500Z AUTO VRB02KT CAVOK 17/16 Q1014 NOSIG
06:30
V
16 °C 10 km+ - 100°   100° 3 kt METAR LFLC 220430Z AUTO 10003KT CAVOK 16/15 Q1014 NOSIG
06:00
V
16 °C 10 km+ - 100°   100° 2 kt METAR LFLC 220400Z AUTO 10002KT CAVOK 16/15 Q1014 NOSIG
05:30
V
16 °C 10 km+ - Var   000° 0 kt METAR LFLC 220330Z AUTO 00000KT CAVOK 16/15 Q1014 NOSIG
05:00
V
17 °C 10 km+ - Var   000° 0 kt METAR LFLC 220300Z AUTO 00000KT CAVOK 17/15 Q1014 NOSIG
04:30
V
17 °C 10 km+ - 020°   020° 2 kt METAR LFLC 220230Z AUTO 02002KT CAVOK 17/16 Q1015 NOSIG
04:00
V
18 °C 10 km+ - 090°   090° 3 kt METAR LFLC 220200Z AUTO 09003KT CAVOK 18/16 Q1015 NOSIG
03:30
V
17 °C 10 km+ - 090°   090° 3 kt METAR LFLC 220130Z AUTO 09003KT CAVOK 17/15 Q1015 NOSIG
03:00
V
18 °C 10 km+ - 110°   110° 3 kt METAR LFLC 220100Z AUTO 11003KT CAVOK 18/16 Q1015 NOSIG
02:30
V
18 °C 10 km+ - 110°   110° 3 kt METAR LFLC 220030Z AUTO 11003KT CAVOK 18/16 Q1015 NOSIG
02:00
V
18 °C 10 km+ - 130°   130° 2 kt METAR LFLC 220000Z AUTO 13002KT CAVOK 18/16 Q1016 NOSIG
01:30
V
19 °C 10 km+ - 030°   030° 2 kt METAR LFLC 212330Z AUTO 03002KT CAVOK 19/16 Q1016 NOSIG
01:00
V
20 °C 10 km+ - Var   000° 0 kt METAR LFLC 212300Z AUTO 00000KT CAVOK 20/17 Q1016 NOSIG
00:30
V
21 °C 10 km+ - Var   000° 0 kt METAR LFLC 212230Z AUTO 00000KT CAVOK 21/17 Q1016 NOSIG
00:00
V
22 °C 10 km+ - 340°   340° 3 kt METAR LFLC 212200Z AUTO 34003KT CAVOK 22/17 Q1016 NOSIG

2022年5月21日

时间 代码 天气 温度 能见度 乌云 METAR/SPECI
23:30
V
23 °C 10 km+ - Var   Var 3 kt METAR LFLC 212130Z AUTO VRB03KT CAVOK 23/17 Q1017 NOSIG
23:00
V
24 °C 10 km+ - Var   Var 3 kt METAR LFLC 212100Z AUTO VRB03KT CAVOK 24/17 Q1017 NOSIG
22:30
V
24 °C 10 km+ - 330°   330° 3 kt METAR LFLC 212030Z AUTO 33003KT CAVOK 24/18 Q1017 NOSIG
22:00
V
25 °C 10 km+ - 350°   350° 3 kt METAR LFLC 212000Z AUTO 35003KT CAVOK 25/18 Q1017 NOSIG
21:30
V
25 °C 10 km+ - 350°   350° 4 kt METAR LFLC 211930Z AUTO 35004KT CAVOK 25/18 Q1017 NOSIG
21:00
V
26 °C 10 km+ - 010°   010° 3 kt METAR LFLC 211900Z AUTO 01003KT CAVOK 26/18 Q1017 NOSIG
20:30
V
27 °C 10 km+ - 030°   030° 6 kt METAR LFLC 211830Z AUTO 03006KT CAVOK 27/19 Q1017 NOSIG
20:00
V
28 °C 10 km+ - 030°   030° 7 kt METAR LFLC 211800Z AUTO 03007KT CAVOK 28/17 Q1017 NOSIG
19:30
V
28 °C 10 km+ - 010°   010° 7 kt METAR LFLC 211730Z AUTO 01007KT CAVOK 28/18 Q1017 NOSIG
19:00
V
29 °C 10 km+ - 010°   010° 5 kt METAR LFLC 211700Z AUTO 01005KT CAVOK 29/17 Q1017 NOSIG
18:30
V
29 °C 10 km+ - 360°   360° 6 kt METAR LFLC 211630Z AUTO 36006KT CAVOK 29/17 Q1017 NOSIG
18:00
V
29 °C 10 km+ - 020°   020° 6 kt METAR LFLC 211600Z AUTO 02006KT CAVOK 29/17 Q1017 NOSIG
17:30
V
30 °C 10 km+ - 020°   020° 7 kt METAR LFLC 211530Z AUTO 02007KT 350V060 CAVOK 30/17 Q1018 NOSIG
17:00
V
30 °C 10 km+ - 020°   020° 7 kt METAR LFLC 211500Z AUTO 02007KT 350V060 CAVOK 30/17 Q1018 NOSIG
16:30
V
30 °C 10 km+ - 010°   010° 7 kt METAR LFLC 211430Z AUTO 01007KT 330V060 CAVOK 30/16 Q1018 NOSIG
16:00
V
30 °C 10 km+ - 020°   020° 4 kt METAR LFLC 211400Z AUTO 02004KT 310V100 CAVOK 30/17 Q1019 NOSIG
15:30
V
29 °C 10 km+ - Var   Var 3 kt METAR LFLC 211330Z AUTO VRB03KT CAVOK 29/17 Q1019 NOSIG
15:00
V
29 °C 10 km+ - 060°   060° 4 kt METAR LFLC 211300Z AUTO 06004KT 340V150 CAVOK 29/17 Q1020 NOSIG
14:30
V
29 °C 10 km+ - Var   Var 3 kt METAR LFLC 211230Z AUTO VRB03KT CAVOK 29/17 Q1020 NOSIG
14:00
V
28 °C 10 km+ - Var   Var 3 kt METAR LFLC 211200Z AUTO VRB03KT CAVOK 28/17 Q1020 NOSIG
13:30
V
27 °C 10 km+ - 360°   360° 4 kt METAR LFLC 211130Z AUTO 36004KT 290V070 CAVOK 27/16 Q1021 NOSIG
13:00
V
27 °C 10 km+ - Var   Var 4 kt METAR LFLC 211100Z AUTO VRB04KT CAVOK 27/17 Q1021 NOSIG
12:30
V
26 °C 10 km+ - Var   Var 3 kt METAR LFLC 211030Z AUTO VRB03KT CAVOK 26/17 Q1021 NOSIG
12:00
V
25 °C 10 km+ - Var   Var 3 kt METAR LFLC 211000Z AUTO VRB03KT CAVOK 25/16 Q1021 NOSIG
11:30
V
24 °C 10 km+ - Var   Var 4 kt METAR LFLC 210930Z AUTO VRB04KT CAVOK 24/16 Q1022 NOSIG
11:00
V
23 °C 10 km+ - 190°   190° 5 kt METAR LFLC 210900Z AUTO 19005KT 150V230 9999 FEW023 23/17 Q1022 NOSIG
较旧的数据

下载我们的应用程序

在您的手机和平板电脑上轻松访问所有航空天气。
有许多网站上没有的功能,如离线支持和个人机场列表。

Studio Eveline

Benalmádena
España

我们和第三方通过cookies跟踪您在我们网站上的上网行为。如果您继续,我们认为您同意我们的cookie政策。 了解更多